sensor_id;sensor_type;location;lat;lon;timestamp;P1;durP1;ratioP1;P2;durP2;ratioP2
38312;SDS011;24114;52.260;6.714;2023-06-22T00:00:25;7.05;;;6.35;;
38312;SDS011;24114;52.260;6.714;2023-06-22T00:02:53;6.90;;;6.10;;
38312;SDS011;24114;52.260;6.714;2023-06-22T00:05:21;7.27;;;6.37;;
38312;SDS011;24114;52.260;6.714;2023-06-22T00:07:49;6.70;;;6.10;;
38312;SDS011;24114;52.260;6.714;2023-06-22T00:10:17;7.53;;;6.82;;
38312;SDS011;24114;52.260;6.714;2023-06-22T00:12:45;7.50;;;6.77;;
38312;SDS011;24114;52.260;6.714;2023-06-22T00:15:14;7.53;;;6.72;;
38312;SDS011;24114;52.260;6.714;2023-06-22T00:17:42;8.05;;;7.25;;
38312;SDS011;24114;52.260;6.714;2023-06-22T00:20:10;8.60;;;7.60;;
38312;SDS011;24114;52.260;6.714;2023-06-22T00:22:38;8.00;;;6.90;;
38312;SDS011;24114;52.260;6.714;2023-06-22T00:25:06;8.63;;;7.30;;
38312;SDS011;24114;52.260;6.714;2023-06-22T00:27:35;8.30;;;7.50;;
38312;SDS011;24114;52.260;6.714;2023-06-22T00:30:03;8.02;;;7.22;;
38312;SDS011;24114;52.260;6.714;2023-06-22T00:32:33;8.88;;;8.07;;
38312;SDS011;24114;52.260;6.714;2023-06-22T00:35:01;8.63;;;7.85;;
38312;SDS011;24114;52.260;6.714;2023-06-22T00:37:28;8.87;;;7.97;;
38312;SDS011;24114;52.260;6.714;2023-06-22T00:39:56;11.07;;;8.50;;
38312;SDS011;24114;52.260;6.714;2023-06-22T00:42:24;9.15;;;8.05;;
38312;SDS011;24114;52.260;6.714;2023-06-22T00:44:52;9.65;;;8.70;;
38312;SDS011;24114;52.260;6.714;2023-06-22T00:47:20;9.68;;;8.68;;
38312;SDS011;24114;52.260;6.714;2023-06-22T00:49:50;10.10;;;9.10;;
38312;SDS011;24114;52.260;6.714;2023-06-22T00:52:18;11.00;;;9.80;;
38312;SDS011;24114;52.260;6.714;2023-06-22T00:54:48;10.32;;;9.38;;
38312;SDS011;24114;52.260;6.714;2023-06-22T00:57:16;9.93;;;9.02;;
38312;SDS011;24114;52.260;6.714;2023-06-22T00:59:44;10.40;;;9.40;;
38312;SDS011;24114;52.260;6.714;2023-06-22T01:02:12;11.10;;;10.10;;
38312;SDS011;24114;52.260;6.714;2023-06-22T01:04:40;11.18;;;10.07;;
38312;SDS011;24114;52.260;6.714;2023-06-22T01:07:10;12.10;;;11.00;;
38312;SDS011;24114;52.260;6.714;2023-06-22T01:09:45;11.88;;;10.80;;
38312;SDS011;24114;52.260;6.714;2023-06-22T01:12:16;11.40;;;10.30;;
38312;SDS011;24114;52.260;6.714;2023-06-22T01:14:47;11.30;;;10.25;;
38312;SDS011;24114;52.260;6.714;2023-06-22T01:17:18;13.02;;;11.73;;
38312;SDS011;24114;52.260;6.714;2023-06-22T01:19:47;12.40;;;11.23;;
38312;SDS011;24114;52.260;6.714;2023-06-22T01:22:20;12.05;;;10.90;;
38312;SDS011;24114;52.260;6.714;2023-06-22T01:24:51;12.20;;;10.90;;
38312;SDS011;24114;52.260;6.714;2023-06-22T01:27:28;13.18;;;11.88;;
38312;SDS011;24114;52.260;6.714;2023-06-22T01:30:02;13.43;;;12.10;;
38312;SDS011;24114;52.260;6.714;2023-06-22T01:32:32;13.45;;;12.07;;
38312;SDS011;24114;52.260;6.714;2023-06-22T01:35:03;13.32;;;12.07;;
38312;SDS011;24114;52.260;6.714;2023-06-22T01:37:32;13.82;;;12.52;;
38312;SDS011;24114;52.260;6.714;2023-06-22T01:40:01;13.75;;;12.35;;
38312;SDS011;24114;52.260;6.714;2023-06-22T01:42:31;14.75;;;13.35;;
38312;SDS011;24114;52.260;6.714;2023-06-22T01:44:59;14.85;;;13.35;;
38312;SDS011;24114;52.260;6.714;2023-06-22T01:47:29;15.85;;;14.20;;
38312;SDS011;24114;52.260;6.714;2023-06-22T01:49:57;15.90;;;14.32;;
38312;SDS011;24114;52.260;6.714;2023-06-22T01:52:25;16.48;;;14.88;;
38312;SDS011;24114;52.260;6.714;2023-06-22T01:54:53;15.43;;;13.90;;
38312;SDS011;24114;52.260;6.714;2023-06-22T01:57:24;16.92;;;13.45;;
38312;SDS011;24114;52.260;6.714;2023-06-22T01:59:52;16.38;;;14.65;;
38312;SDS011;24114;52.260;6.714;2023-06-22T02:02:25;17.80;;;16.02;;
38312;SDS011;24114;52.260;6.714;2023-06-22T02:04:58;17.92;;;16.02;;
38312;SDS011;24114;52.260;6.714;2023-06-22T02:07:29;18.27;;;16.38;;
38312;SDS011;24114;52.260;6.714;2023-06-22T02:10:00;18.33;;;16.42;;
38312;SDS011;24114;52.260;6.714;2023-06-22T02:12:30;18.40;;;16.47;;
38312;SDS011;24114;52.260;6.714;2023-06-22T02:14:58;19.27;;;17.27;;
38312;SDS011;24114;52.260;6.714;2023-06-22T02:17:29;19.33;;;17.25;;
38312;SDS011;24114;52.260;6.714;2023-06-22T02:20:00;20.42;;;17.63;;
38312;SDS011;24114;52.260;6.714;2023-06-22T02:22:34;19.13;;;17.13;;
38312;SDS011;24114;52.260;6.714;2023-06-22T02:25:02;19.58;;;17.38;;
38312;SDS011;24114;52.260;6.714;2023-06-22T02:27:30;19.40;;;17.50;;
38312;SDS011;24114;52.260;6.714;2023-06-22T02:29:58;19.63;;;17.67;;
38312;SDS011;24114;52.260;6.714;2023-06-22T02:32:26;20.05;;;18.02;;
38312;SDS011;24114;52.260;6.714;2023-06-22T02:34:56;20.23;;;18.23;;
38312;SDS011;24114;52.260;6.714;2023-06-22T02:37:23;20.67;;;18.48;;
38312;SDS011;24114;52.260;6.714;2023-06-22T02:39:55;21.05;;;18.88;;
38312;SDS011;24114;52.260;6.714;2023-06-22T02:42:23;22.15;;;19.80;;
38312;SDS011;24114;52.260;6.714;2023-06-22T02:44:51;22.15;;;19.95;;
38312;SDS011;24114;52.260;6.714;2023-06-22T02:47:19;22.27;;;19.87;;
38312;SDS011;24114;52.260;6.714;2023-06-22T02:49:46;22.67;;;20.25;;
38312;SDS011;24114;52.260;6.714;2023-06-22T02:52:16;22.95;;;20.58;;
38312;SDS011;24114;52.260;6.714;2023-06-22T02:54:44;21.85;;;19.67;;
38312;SDS011;24114;52.260;6.714;2023-06-22T02:57:12;22.08;;;19.77;;
38312;SDS011;24114;52.260;6.714;2023-06-22T02:59:40;20.93;;;18.83;;
38312;SDS011;24114;52.260;6.714;2023-06-22T03:02:09;20.98;;;18.88;;
38312;SDS011;24114;52.260;6.714;2023-06-22T03:04:37;21.23;;;19.03;;
38312;SDS011;24114;52.260;6.714;2023-06-22T03:07:05;22.55;;;20.25;;
38312;SDS011;24114;52.260;6.714;2023-06-22T03:09:34;23.45;;;21.05;;
38312;SDS011;24114;52.260;6.714;2023-06-22T03:12:02;23.40;;;21.00;;
38312;SDS011;24114;52.260;6.714;2023-06-22T03:14:30;24.23;;;21.63;;
38312;SDS011;24114;52.260;6.714;2023-06-22T03:16:58;24.08;;;21.38;;
38312;SDS011;24114;52.260;6.714;2023-06-22T03:19:29;24.52;;;21.92;;
38312;SDS011;24114;52.260;6.714;2023-06-22T03:21:58;24.33;;;21.83;;
38312;SDS011;24114;52.260;6.714;2023-06-22T03:24:27;24.10;;;21.52;;
38312;SDS011;24114;52.260;6.714;2023-06-22T03:26:57;25.25;;;22.52;;
38312;SDS011;24114;52.260;6.714;2023-06-22T03:29:25;24.05;;;21.42;;
38312;SDS011;24114;52.260;6.714;2023-06-22T03:31:56;25.30;;;22.70;;
38312;SDS011;24114;52.260;6.714;2023-06-22T03:34:24;25.60;;;22.80;;
38312;SDS011;24114;52.260;6.714;2023-06-22T03:36:52;26.08;;;23.15;;
38312;SDS011;24114;52.260;6.714;2023-06-22T03:39:20;25.08;;;22.48;;
38312;SDS011;24114;52.260;6.714;2023-06-22T03:41:48;24.95;;;22.35;;
38312;SDS011;24114;52.260;6.714;2023-06-22T03:44:17;25.73;;;23.08;;
38312;SDS011;24114;52.260;6.714;2023-06-22T03:46:45;26.00;;;23.33;;
38312;SDS011;24114;52.260;6.714;2023-06-22T03:49:13;25.90;;;23.25;;
38312;SDS011;24114;52.260;6.714;2023-06-22T03:51:41;25.07;;;22.47;;
38312;SDS011;24114;52.260;6.714;2023-06-22T03:54:08;25.80;;;23.10;;
38312;SDS011;24114;52.260;6.714;2023-06-22T03:56:36;27.13;;;23.40;;
38312;SDS011;24114;52.260;6.714;2023-06-22T03:59:04;27.33;;;24.33;;
38312;SDS011;24114;52.260;6.714;2023-06-22T04:01:33;25.27;;;22.65;;
38312;SDS011;24114;52.260;6.714;2023-06-22T04:04:03;26.38;;;23.67;;
38312;SDS011;24114;52.260;6.714;2023-06-22T04:06:31;26.42;;;23.63;;
38312;SDS011;24114;52.260;6.714;2023-06-22T04:09:00;26.90;;;24.10;;
38312;SDS011;24114;52.260;6.714;2023-06-22T04:11:27;28.23;;;25.17;;
38312;SDS011;24114;52.260;6.714;2023-06-22T04:13:55;26.77;;;23.98;;
38312;SDS011;24114;52.260;6.714;2023-06-22T04:16:23;27.90;;;25.00;;
38312;SDS011;24114;52.260;6.714;2023-06-22T04:18:52;27.38;;;24.58;;
38312;SDS011;24114;52.260;6.714;2023-06-22T04:21:20;28.05;;;25.05;;
38312;SDS011;24114;52.260;6.714;2023-06-22T04:23:48;27.58;;;24.77;;
38312;SDS011;24114;52.260;6.714;2023-06-22T04:26:16;27.55;;;24.58;;
38312;SDS011;24114;52.260;6.714;2023-06-22T04:28:47;26.83;;;23.88;;
38312;SDS011;24114;52.260;6.714;2023-06-22T04:31:17;26.58;;;23.77;;
38312;SDS011;24114;52.260;6.714;2023-06-22T04:33:46;27.42;;;24.45;;
38312;SDS011;24114;52.260;6.714;2023-06-22T04:36:15;27.33;;;24.47;;
38312;SDS011;24114;52.260;6.714;2023-06-22T04:38:43;26.67;;;23.87;;
38312;SDS011;24114;52.260;6.714;2023-06-22T04:41:11;28.35;;;25.33;;
38312;SDS011;24114;52.260;6.714;2023-06-22T04:43:40;28.02;;;25.08;;
38312;SDS011;24114;52.260;6.714;2023-06-22T04:46:08;28.40;;;25.02;;
38312;SDS011;24114;52.260;6.714;2023-06-22T04:48:36;26.42;;;23.63;;
38312;SDS011;24114;52.260;6.714;2023-06-22T04:51:03;26.50;;;23.70;;
38312;SDS011;24114;52.260;6.714;2023-06-22T04:53:33;25.98;;;23.27;;
38312;SDS011;24114;52.260;6.714;2023-06-22T04:56:00;27.10;;;24.20;;
38312;SDS011;24114;52.260;6.714;2023-06-22T04:58:30;26.73;;;23.85;;
38312;SDS011;24114;52.260;6.714;2023-06-22T05:00:58;27.25;;;24.35;;
38312;SDS011;24114;52.260;6.714;2023-06-22T05:03:26;24.70;;;21.93;;
38312;SDS011;24114;52.260;6.714;2023-06-22T05:05:54;26.30;;;23.42;;
38312;SDS011;24114;52.260;6.714;2023-06-22T05:08:22;25.05;;;22.45;;
38312;SDS011;24114;52.260;6.714;2023-06-22T05:10:54;25.52;;;22.83;;
38312;SDS011;24114;52.260;6.714;2023-06-22T05:13:30;25.33;;;22.63;;
38312;SDS011;24114;52.260;6.714;2023-06-22T05:15:58;25.05;;;22.42;;
38312;SDS011;24114;52.260;6.714;2023-06-22T05:18:29;25.75;;;22.50;;
38312;SDS011;24114;52.260;6.714;2023-06-22T05:20:57;23.70;;;21.30;;
38312;SDS011;24114;52.260;6.714;2023-06-22T05:23:25;23.83;;;21.23;;
38312;SDS011;24114;52.260;6.714;2023-06-22T05:25:55;21.30;;;19.20;;
38312;SDS011;24114;52.260;6.714;2023-06-22T05:28:24;24.02;;;21.52;;
38312;SDS011;24114;52.260;6.714;2023-06-22T05:30:52;23.03;;;20.33;;
38312;SDS011;24114;52.260;6.714;2023-06-22T05:33:20;25.00;;;21.20;;
38312;SDS011;24114;52.260;6.714;2023-06-22T05:35:48;22.75;;;20.35;;
38312;SDS011;24114;52.260;6.714;2023-06-22T05:38:16;20.40;;;18.20;;
38312;SDS011;24114;52.260;6.714;2023-06-22T05:40:44;21.98;;;19.52;;
38312;SDS011;24114;52.260;6.714;2023-06-22T05:43:13;20.92;;;18.73;;
38312;SDS011;24114;52.260;6.714;2023-06-22T05:45:41;21.13;;;18.77;;
38312;SDS011;24114;52.260;6.714;2023-06-22T05:48:09;19.67;;;17.67;;
38312;SDS011;24114;52.260;6.714;2023-06-22T05:50:36;18.77;;;16.77;;
38312;SDS011;24114;52.260;6.714;2023-06-22T05:53:05;18.02;;;16.13;;
38312;SDS011;24114;52.260;6.714;2023-06-22T05:55:34;18.25;;;16.35;;
38312;SDS011;24114;52.260;6.714;2023-06-22T05:58:01;16.20;;;14.63;;
38312;SDS011;24114;52.260;6.714;2023-06-22T06:00:32;17.20;;;15.48;;
38312;SDS011;24114;52.260;6.714;2023-06-22T06:03:00;18.58;;;16.67;;
38312;SDS011;24114;52.260;6.714;2023-06-22T06:05:29;17.07;;;15.37;;
38312;SDS011;24114;52.260;6.714;2023-06-22T06:07:58;16.92;;;15.13;;
38312;SDS011;24114;52.260;6.714;2023-06-22T06:10:26;17.25;;;15.45;;
38312;SDS011;24114;52.260;6.714;2023-06-22T06:12:56;15.25;;;13.65;;
38312;SDS011;24114;52.260;6.714;2023-06-22T06:15:24;15.77;;;14.23;;
38312;SDS011;24114;52.260;6.714;2023-06-22T06:17:53;13.65;;;12.25;;
38312;SDS011;24114;52.260;6.714;2023-06-22T06:20:22;12.70;;;11.40;;
38312;SDS011;24114;52.260;6.714;2023-06-22T06:22:50;12.73;;;11.38;;
38312;SDS011;24114;52.260;6.714;2023-06-22T06:25:18;11.80;;;10.60;;
38312;SDS011;24114;52.260;6.714;2023-06-22T06:27:48;10.77;;;9.77;;
38312;SDS011;24114;52.260;6.714;2023-06-22T06:30:18;11.60;;;10.43;;
38312;SDS011;24114;52.260;6.714;2023-06-22T06:32:46;12.80;;;11.23;;
38312;SDS011;24114;52.260;6.714;2023-06-22T06:35:15;13.65;;;11.50;;
38312;SDS011;24114;52.260;6.714;2023-06-22T06:37:44;13.60;;;11.20;;
38312;SDS011;24114;52.260;6.714;2023-06-22T06:40:15;11.40;;;10.30;;
38312;SDS011;24114;52.260;6.714;2023-06-22T06:42:43;12.63;;;11.07;;
38312;SDS011;24114;52.260;6.714;2023-06-22T06:45:12;10.65;;;9.55;;
38312;SDS011;24114;52.260;6.714;2023-06-22T06:47:42;10.00;;;9.00;;
38312;SDS011;24114;52.260;6.714;2023-06-22T06:50:11;11.07;;;9.93;;
38312;SDS011;24114;52.260;6.714;2023-06-22T06:52:40;11.68;;;10.48;;
38312;SDS011;24114;52.260;6.714;2023-06-22T06:55:09;10.77;;;9.52;;
38312;SDS011;24114;52.260;6.714;2023-06-22T06:57:38;9.85;;;8.82;;
38312;SDS011;24114;52.260;6.714;2023-06-22T07:00:07;9.53;;;8.60;;
38312;SDS011;24114;52.260;6.714;2023-06-22T07:02:38;9.18;;;8.30;;
38312;SDS011;24114;52.260;6.714;2023-06-22T07:05:07;8.02;;;7.22;;
38312;SDS011;24114;52.260;6.714;2023-06-22T07:07:36;10.17;;;9.17;;
38312;SDS011;24114;52.260;6.714;2023-06-22T07:10:06;8.70;;;7.90;;
38312;SDS011;24114;52.260;6.714;2023-06-22T07:12:34;8.38;;;7.40;;
38312;SDS011;24114;52.260;6.714;2023-06-22T07:15:02;9.00;;;7.65;;
38312;SDS011;24114;52.260;6.714;2023-06-22T07:17:31;7.28;;;6.55;;
38312;SDS011;24114;52.260;6.714;2023-06-22T07:19:59;8.10;;;7.28;;
38312;SDS011;24114;52.260;6.714;2023-06-22T07:22:27;6.78;;;6.18;;
38312;SDS011;24114;52.260;6.714;2023-06-22T07:24:55;9.63;;;7.30;;
38312;SDS011;24114;52.260;6.714;2023-06-22T07:27:24;8.85;;;7.95;;
38312;SDS011;24114;52.260;6.714;2023-06-22T07:29:53;7.22;;;6.43;;
38312;SDS011;24114;52.260;6.714;2023-06-22T07:32:21;9.07;;;8.03;;
38312;SDS011;24114;52.260;6.714;2023-06-22T07:34:49;8.65;;;7.60;;
38312;SDS011;24114;52.260;6.714;2023-06-22T07:37:17;7.20;;;6.50;;
38312;SDS011;24114;52.260;6.714;2023-06-22T07:39:45;7.75;;;7.00;;
38312;SDS011;24114;52.260;6.714;2023-06-22T07:42:13;8.10;;;7.20;;
38312;SDS011;24114;52.260;6.714;2023-06-22T07:44:46;8.38;;;7.57;;
38312;SDS011;24114;52.260;6.714;2023-06-22T07:47:14;8.18;;;6.60;;
38312;SDS011;24114;52.260;6.714;2023-06-22T07:49:44;8.20;;;7.40;;
38312;SDS011;24114;52.260;6.714;2023-06-22T07:52:12;8.65;;;7.25;;
38312;SDS011;24114;52.260;6.714;2023-06-22T07:54:39;8.00;;;7.20;;
38312;SDS011;24114;52.260;6.714;2023-06-22T07:57:07;8.63;;;7.20;;
38312;SDS011;24114;52.260;6.714;2023-06-22T07:59:36;7.53;;;6.72;;
38312;SDS011;24114;52.260;6.714;2023-06-22T08:02:06;8.05;;;7.20;;
38312;SDS011;24114;52.260;6.714;2023-06-22T08:06:58;6.72;;;6.10;;
38312;SDS011;24114;52.260;6.714;2023-06-22T08:09:27;6.72;;;5.95;;
38312;SDS011;24114;52.260;6.714;2023-06-22T08:11:55;8.27;;;7.47;;
38312;SDS011;24114;52.260;6.714;2023-06-22T08:14:23;6.78;;;6.18;;
38312;SDS011;24114;52.260;6.714;2023-06-22T08:16:51;6.80;;;5.37;;
38312;SDS011;24114;52.260;6.714;2023-06-22T08:19:18;7.25;;;6.55;;
38312;SDS011;24114;52.260;6.714;2023-06-22T08:21:46;6.78;;;6.18;;
38312;SDS011;24114;52.260;6.714;2023-06-22T08:24:15;7.00;;;6.30;;
38312;SDS011;24114;52.260;6.714;2023-06-22T08:26:43;6.70;;;6.10;;
38312;SDS011;24114;52.260;6.714;2023-06-22T08:29:11;6.85;;;5.68;;
38312;SDS011;24114;52.260;6.714;2023-06-22T08:31:39;7.50;;;6.25;;
38312;SDS011;24114;52.260;6.714;2023-06-22T08:34:06;7.47;;;6.78;;
38312;SDS011;24114;52.260;6.714;2023-06-22T08:36:34;6.60;;;5.82;;
38312;SDS011;24114;52.260;6.714;2023-06-22T08:39:07;7.57;;;6.10;;
38312;SDS011;24114;52.260;6.714;2023-06-22T11:17:30;6.35;;;5.75;;
38312;SDS011;24114;52.260;6.714;2023-06-22T11:19:57;6.28;;;5.60;;
38312;SDS011;24114;52.260;6.714;2023-06-22T11:22:26;6.83;;;5.70;;
38312;SDS011;24114;52.260;6.714;2023-06-22T11:25:55;7.78;;;6.10;;
38312;SDS011;24114;52.260;6.714;2023-06-22T11:28:23;6.55;;;5.95;;
38312;SDS011;24114;52.260;6.714;2023-06-22T11:30:51;10.20;;;5.88;;
38312;SDS011;24114;52.260;6.714;2023-06-22T11:33:19;5.68;;;5.18;;
38312;SDS011;24114;52.260;6.714;2023-06-22T11:35:47;6.65;;;5.55;;
38312;SDS011;24114;52.260;6.714;2023-06-22T11:38:47;5.53;;;5.05;;
38312;SDS011;24114;52.260;6.714;2023-06-22T11:41:15;6.70;;;6.05;;
38312;SDS011;24114;52.260;6.714;2023-06-22T11:43:42;5.30;;;4.90;;
38312;SDS011;24114;52.260;6.714;2023-06-22T11:46:11;5.90;;;5.38;;
38312;SDS011;24114;52.260;6.714;2023-06-22T11:49:17;5.88;;;5.18;;
38312;SDS011;24114;52.260;6.714;2023-06-22T11:51:45;6.32;;;5.72;;
38312;SDS011;24114;52.260;6.714;2023-06-22T11:54:12;6.83;;;5.60;;
38312;SDS011;24114;52.260;6.714;2023-06-22T11:56:40;5.03;;;4.53;;
38312;SDS011;24114;52.260;6.714;2023-06-22T11:59:08;6.75;;;6.15;;
38312;SDS011;24114;52.260;6.714;2023-06-22T12:01:36;5.97;;;5.43;;
38312;SDS011;24114;52.260;6.714;2023-06-22T12:04:04;6.57;;;5.97;;
38312;SDS011;24114;52.260;6.714;2023-06-22T12:06:35;7.32;;;6.63;;
38312;SDS011;24114;52.260;6.714;2023-06-22T12:09:04;7.07;;;6.37;;
38312;SDS011;24114;52.260;6.714;2023-06-22T12:11:32;7.18;;;6.57;;
38312;SDS011;24114;52.260;6.714;2023-06-22T12:14:00;6.35;;;5.47;;
38312;SDS011;24114;52.260;6.714;2023-06-22T12:16:28;6.20;;;5.60;;
38312;SDS011;24114;52.260;6.714;2023-06-22T12:18:56;7.03;;;6.15;;
38312;SDS011;24114;52.260;6.714;2023-06-22T12:21:24;5.97;;;5.38;;
38312;SDS011;24114;52.260;6.714;2023-06-22T12:23:53;6.70;;;6.10;;
38312;SDS011;24114;52.260;6.714;2023-06-22T12:26:21;7.28;;;6.57;;
38312;SDS011;24114;52.260;6.714;2023-06-22T12:28:49;6.90;;;6.20;;
38312;SDS011;24114;52.260;6.714;2023-06-22T12:31:17;6.55;;;5.95;;
38312;SDS011;24114;52.260;6.714;2023-06-22T12:34:28;6.88;;;5.93;;
38312;SDS011;24114;52.260;6.714;2023-06-22T12:36:56;6.97;;;6.28;;
38312;SDS011;24114;52.260;6.714;2023-06-22T12:39:24;6.50;;;5.90;;
38312;SDS011;24114;52.260;6.714;2023-06-22T12:41:51;6.25;;;5.55;;
38312;SDS011;24114;52.260;6.714;2023-06-22T12:44:19;6.50;;;5.25;;
38312;SDS011;24114;52.260;6.714;2023-06-22T12:46:47;6.65;;;6.00;;
38312;SDS011;24114;52.260;6.714;2023-06-22T12:49:15;7.07;;;6.30;;
38312;SDS011;24114;52.260;6.714;2023-06-22T12:51:44;7.15;;;6.45;;
38312;SDS011;24114;52.260;6.714;2023-06-22T12:54:12;6.93;;;6.33;;
38312;SDS011;24114;52.260;6.714;2023-06-22T12:56:40;7.50;;;6.80;;
38312;SDS011;24114;52.260;6.714;2023-06-22T12:59:10;7.18;;;6.47;;
38312;SDS011;24114;52.260;6.714;2023-06-22T13:02:22;7.93;;;7.22;;
38312;SDS011;24114;52.260;6.714;2023-06-22T13:04:50;7.75;;;7.15;;
38312;SDS011;24114;52.260;6.714;2023-06-22T13:07:18;11.85;;;8.93;;
38312;SDS011;24114;52.260;6.714;2023-06-22T13:09:49;9.88;;;8.88;;
38312;SDS011;24114;52.260;6.714;2023-06-22T13:13:15;10.83;;;9.83;;
38312;SDS011;24114;52.260;6.714;2023-06-22T13:15:42;12.85;;;11.65;;
38312;SDS011;24114;52.260;6.714;2023-06-22T13:18:10;12.77;;;11.32;;
38312;SDS011;24114;52.260;6.714;2023-06-22T13:20:38;12.80;;;11.60;;
38312;SDS011;24114;52.260;6.714;2023-06-22T13:23:06;13.23;;;12.02;;
38312;SDS011;24114;52.260;6.714;2023-06-22T13:25:34;13.60;;;12.40;;
38312;SDS011;24114;52.260;6.714;2023-06-22T13:28:02;14.35;;;12.88;;
38312;SDS011;24114;52.260;6.714;2023-06-22T13:30:34;14.82;;;13.43;;
38312;SDS011;24114;52.260;6.714;2023-06-22T13:33:02;15.00;;;13.60;;
38312;SDS011;24114;52.260;6.714;2023-06-22T13:35:30;14.60;;;13.30;;
38312;SDS011;24114;52.260;6.714;2023-06-22T13:37:58;15.00;;;13.57;;
38312;SDS011;24114;52.260;6.714;2023-06-22T13:40:26;14.68;;;13.27;;
38312;SDS011;24114;52.260;6.714;2023-06-22T13:42:54;15.40;;;13.90;;
38312;SDS011;24114;52.260;6.714;2023-06-22T13:45:22;15.45;;;14.02;;
38312;SDS011;24114;52.260;6.714;2023-06-22T13:47:51;17.23;;;15.55;;
38312;SDS011;24114;52.260;6.714;2023-06-22T13:50:19;17.07;;;15.37;;
38312;SDS011;24114;52.260;6.714;2023-06-22T13:52:47;19.08;;;17.08;;
38312;SDS011;24114;52.260;6.714;2023-06-22T13:55:15;18.83;;;16.83;;
38312;SDS011;24114;52.260;6.714;2023-06-22T13:57:43;17.90;;;16.20;;
38312;SDS011;24114;52.260;6.714;2023-06-22T14:00:11;19.07;;;16.80;;
38312;SDS011;24114;52.260;6.714;2023-06-22T14:02:40;19.27;;;17.30;;
38312;SDS011;24114;52.260;6.714;2023-06-22T14:05:09;18.33;;;16.48;;
38312;SDS011;24114;52.260;6.714;2023-06-22T14:07:38;17.77;;;16.05;;
38312;SDS011;24114;52.260;6.714;2023-06-22T14:10:06;18.88;;;16.88;;
38312;SDS011;24114;52.260;6.714;2023-06-22T14:12:34;22.58;;;18.88;;
38312;SDS011;24114;52.260;6.714;2023-06-22T14:15:02;19.55;;;17.60;;
38312;SDS011;24114;52.260;6.714;2023-06-22T14:17:31;19.50;;;17.60;;
38312;SDS011;24114;52.260;6.714;2023-06-22T14:19:59;20.25;;;18.02;;
38312;SDS011;24114;52.260;6.714;2023-06-22T14:22:28;20.95;;;18.85;;
38312;SDS011;24114;52.260;6.714;2023-06-22T14:24:56;21.23;;;19.13;;
38312;SDS011;24114;52.260;6.714;2023-06-22T14:27:50;22.25;;;19.80;;
38312;SDS011;24114;52.260;6.714;2023-06-22T14:30:18;21.98;;;19.88;;
38312;SDS011;24114;52.260;6.714;2023-06-22T14:32:46;21.23;;;19.07;;
38312;SDS011;24114;52.260;6.714;2023-06-22T14:35:14;21.95;;;19.58;;
38312;SDS011;24114;52.260;6.714;2023-06-22T14:37:42;21.85;;;19.58;;
38312;SDS011;24114;52.260;6.714;2023-06-22T14:40:10;21.52;;;18.95;;
38312;SDS011;24114;52.260;6.714;2023-06-22T14:42:41;21.53;;;19.33;;
38312;SDS011;24114;52.260;6.714;2023-06-22T14:45:12;21.17;;;19.08;;
38312;SDS011;24114;52.260;6.714;2023-06-22T14:47:40;20.10;;;18.20;;
38312;SDS011;24114;52.260;6.714;2023-06-22T14:50:08;20.60;;;18.50;;
38312;SDS011;24114;52.260;6.714;2023-06-22T14:52:36;20.98;;;18.90;;
38312;SDS011;24114;52.260;6.714;2023-06-22T14:55:04;20.05;;;18.15;;
38312;SDS011;24114;52.260;6.714;2023-06-22T14:57:33;24.60;;;19.20;;
38312;SDS011;24114;52.260;6.714;2023-06-22T15:00:01;19.87;;;17.97;;
38312;SDS011;24114;52.260;6.714;2023-06-22T15:02:30;19.98;;;17.98;;
38312;SDS011;24114;52.260;6.714;2023-06-22T15:04:58;25.55;;;18.75;;
38312;SDS011;24114;52.260;6.714;2023-06-22T15:07:26;45.00;;;20.35;;
38312;SDS011;24114;52.260;6.714;2023-06-22T15:09:54;22.10;;;18.73;;
38312;SDS011;24114;52.260;6.714;2023-06-22T15:12:22;36.07;;;19.37;;
38312;SDS011;24114;52.260;6.714;2023-06-22T15:14:49;73.38;;;22.23;;
38312;SDS011;24114;52.260;6.714;2023-06-22T15:17:17;20.88;;;18.30;;
38312;SDS011;24114;52.260;6.714;2023-06-22T15:19:46;21.25;;;19.05;;
38312;SDS011;24114;52.260;6.714;2023-06-22T15:22:14;25.33;;;20.00;;
38312;SDS011;24114;52.260;6.714;2023-06-22T15:24:44;21.30;;;19.15;;
38312;SDS011;24114;52.260;6.714;2023-06-22T15:27:14;24.23;;;20.05;;
38312;SDS011;24114;52.260;6.714;2023-06-22T15:29:42;21.42;;;18.67;;
38312;SDS011;24114;52.260;6.714;2023-06-22T15:32:09;20.80;;;18.65;;
38312;SDS011;24114;52.260;6.714;2023-06-22T15:34:37;25.08;;;18.17;;
38312;SDS011;24114;52.260;6.714;2023-06-22T15:37:07;20.40;;;18.30;;
38312;SDS011;24114;52.260;6.714;2023-06-22T15:39:34;72.95;;;22.60;;
38312;SDS011;24114;52.260;6.714;2023-06-22T15:42:02;87.57;;;23.40;;
38312;SDS011;24114;52.260;6.714;2023-06-22T15:44:30;19.38;;;17.38;;
38312;SDS011;24114;52.260;6.714;2023-06-22T15:46:58;34.07;;;19.07;;
38312;SDS011;24114;52.260;6.714;2023-06-22T15:49:26;19.45;;;17.55;;
38312;SDS011;24114;52.260;6.714;2023-06-22T15:51:54;19.50;;;17.53;;
38312;SDS011;24114;52.260;6.714;2023-06-22T15:54:23;20.58;;;18.48;;
38312;SDS011;24114;52.260;6.714;2023-06-22T15:56:51;18.92;;;17.13;;
38312;SDS011;24114;52.260;6.714;2023-06-22T15:59:19;19.20;;;17.25;;
38312;SDS011;24114;52.260;6.714;2023-06-22T16:01:46;19.40;;;17.48;;
38312;SDS011;24114;52.260;6.714;2023-06-22T16:04:14;20.05;;;18.00;;
38312;SDS011;24114;52.260;6.714;2023-06-22T16:06:42;18.70;;;16.92;;
38312;SDS011;24114;52.260;6.714;2023-06-22T16:09:10;19.65;;;17.77;;
38312;SDS011;24114;52.260;6.714;2023-06-22T16:11:41;18.87;;;16.93;;
38312;SDS011;24114;52.260;6.714;2023-06-22T16:14:35;18.20;;;16.45;;
38312;SDS011;24114;52.260;6.714;2023-06-22T16:17:04;20.23;;;18.27;;
38312;SDS011;24114;52.260;6.714;2023-06-22T16:19:32;19.20;;;17.30;;
38312;SDS011;24114;52.260;6.714;2023-06-22T16:21:59;20.40;;;18.03;;
38312;SDS011;24114;52.260;6.714;2023-06-22T16:24:27;20.88;;;18.67;;
38312;SDS011;24114;52.260;6.714;2023-06-22T16:28:43;20.42;;;18.33;;
38312;SDS011;24114;52.260;6.714;2023-06-22T16:31:11;20.90;;;18.75;;
38312;SDS011;24114;52.260;6.714;2023-06-22T16:33:38;20.88;;;18.75;;
38312;SDS011;24114;52.260;6.714;2023-06-22T16:36:12;20.52;;;18.42;;
38312;SDS011;24114;52.260;6.714;2023-06-22T16:38:41;22.20;;;18.92;;
38312;SDS011;24114;52.260;6.714;2023-06-22T16:41:09;23.30;;;20.73;;
38312;SDS011;24114;52.260;6.714;2023-06-22T16:43:37;22.67;;;20.38;;
38312;SDS011;24114;52.260;6.714;2023-06-22T16:46:07;21.95;;;19.73;;
38312;SDS011;24114;52.260;6.714;2023-06-22T16:48:35;21.85;;;19.55;;
38312;SDS011;24114;52.260;6.714;2023-06-22T16:51:03;23.92;;;19.48;;
38312;SDS011;24114;52.260;6.714;2023-06-22T16:56:28;22.25;;;19.67;;
38312;SDS011;24114;52.260;6.714;2023-06-22T16:58:57;24.30;;;21.03;;
38312;SDS011;24114;52.260;6.714;2023-06-22T17:01:33;22.23;;;19.53;;
38312;SDS011;24114;52.260;6.714;2023-06-22T17:04:04;23.30;;;20.90;;
38312;SDS011;24114;52.260;6.714;2023-06-22T17:06:35;22.52;;;20.08;;
38312;SDS011;24114;52.260;6.714;2023-06-22T17:09:03;23.58;;;20.60;;
38312;SDS011;24114;52.260;6.714;2023-06-22T17:11:32;24.50;;;20.88;;
38312;SDS011;24114;52.260;6.714;2023-06-22T17:14:00;25.05;;;20.95;;
38312;SDS011;24114;52.260;6.714;2023-06-22T17:16:28;22.30;;;19.73;;
38312;SDS011;24114;52.260;6.714;2023-06-22T17:18:58;22.83;;;20.25;;
38312;SDS011;24114;52.260;6.714;2023-06-22T17:21:30;24.20;;;20.88;;
38312;SDS011;24114;52.260;6.714;2023-06-22T17:23:59;25.85;;;21.02;;